Time;durP1;ratioP1;P1;durP2;ratioP2;P2;SDS_P1;SDS_P2;PMS_P1;PMS_P2;Temp;Humidity;BMP_temperature;BMP_pressure;BME280_temperature;BME280_humidity;BME280_pressure;Samples;Min_cycle;Max_cycle;Signal;HPM_P1;HPM_P2
2022/07/21 00:00:58;;;;;;;7.70;4.40;;;;;;;26.49;46.41;100966.24;5164345;57;1139074;-67
2022/07/21 00:06:05;;;;;;;7.67;4.57;;;;;;;26.43;46.61;100959.50;5164326;57;1138842;-65
2022/07/21 00:11:11;;;;;;;7.47;4.55;;;;;;;26.39;46.71;100959.08;5129518;57;1139038;-66
2022/07/21 00:16:16;;;;;;;5.50;4.03;;;;;;;26.31;46.77;100956.58;5164270;57;1139013;-67
2022/07/21 00:21:22;;;;;;;6.67;4.35;;;;;;;26.22;46.91;100951.87;5164310;57;1139014;-68
2022/07/21 00:26:29;;;;;;;9.75;4.67;;;;;;;26.14;47.30;100953.95;5164016;57;1138992;-67
2022/07/21 00:31:35;;;;;;;7.42;4.45;;;;;;;26.02;47.47;100944.27;5164316;57;1139057;-69
2022/07/21 00:36:41;;;;;;;6.35;4.55;;;;;;;25.89;47.87;100936.98;5164578;57;1139250;-68
2022/07/21 00:41:46;;;;;;;8.65;4.65;;;;;;;25.80;47.92;100936.06;5164818;56;1138988;-67
2022/07/21 00:46:53;;;;;;;19.92;5.20;;;;;;;25.75;48.27;100935.33;5164891;57;1138987;-68
2022/07/21 00:51:58;;;;;;;7.60;4.42;;;;;;;25.69;48.44;100935.31;5197463;56;1141278;-67
2022/07/21 00:57:05;;;;;;;5.28;4.08;;;;;;;25.62;48.71;100935.84;5243804;56;1139246;-69
2022/07/21 01:02:12;;;;;;;5.20;4.50;;;;;;;25.62;48.80;100934.48;5251694;56;1139118;-67
2022/07/21 01:07:19;;;;;;;6.95;4.80;;;;;;;25.57;48.77;100931.84;5251563;56;1139017;-68
2022/07/21 01:12:25;;;;;;;9.80;4.85;;;;;;;25.51;49.01;100927.23;5219962;56;1139020;-68
2022/07/21 01:17:31;;;;;;;7.35;4.80;;;;;;;25.43;49.09;100919.84;5148311;56;1139062;-68
2022/07/21 01:22:40;;;;;;;12.73;4.85;;;;;;;25.30;49.80;100911.19;5131170;57;1138700;-67
2022/07/21 01:27:46;;;;;;;7.95;4.55;;;;;;;25.19;50.04;100909.92;5131203;57;1141156;-69
2022/07/21 01:32:53;;;;;;;9.13;4.45;;;;;;;25.05;50.63;100917.70;5131209;57;1139051;-67
2022/07/21 01:38:01;;;;;;;5.20;4.35;;;;;;;24.97;50.44;100915.67;5131194;57;1138999;-66
2022/07/21 01:43:07;;;;;;;5.45;4.15;;;;;;;24.95;50.56;100909.11;5131148;57;1139067;-67
2022/07/21 01:48:13;;;;;;;4.95;4.22;;;;;;;25.01;50.39;100910.18;5131059;57;1138963;-68
2022/07/21 01:53:18;;;;;;;6.62;4.28;;;;;;;25.05;50.26;100908.73;5162607;56;1139045;-67
2022/07/21 01:58:25;;;;;;;4.50;4.10;;;;;;;25.05;50.24;100911.45;5216698;56;1139157;-69
2022/07/21 02:03:30;;;;;;;8.30;4.22;;;;;;;25.03;50.36;100919.77;5216763;56;1139055;-69
2022/07/21 02:08:37;;;;;;;6.83;4.40;;;;;;;24.96;50.40;100918.06;5216689;56;1139055;-68
2022/07/21 02:13:43;;;;;;;6.17;4.62;;;;;;;24.86;50.58;100923.31;5216586;56;1138490;-67
2022/07/21 02:18:49;;;;;;;10.63;4.78;;;;;;;24.82;50.84;100930.16;5216878;56;1138993;-67
2022/07/21 02:23:54;;;;;;;5.60;4.28;;;;;;;24.80;51.20;100916.00;5216672;56;1141374;-68
2022/07/21 02:29:00;;;;;;;5.65;4.85;;;;;;;24.75;51.12;100910.90;5216519;56;1139072;-68
2022/07/21 02:34:06;;;;;;;6.70;4.35;;;;;;;24.71;51.31;100910.46;5216678;56;1138999;-68
2022/07/21 02:39:13;;;;;;;5.22;4.42;;;;;;;24.61;51.32;100911.33;5216686;56;1136949;-67
2022/07/21 02:44:18;;;;;;;5.28;4.70;;;;;;;24.60;51.51;100915.07;5164712;56;1136986;-68
2022/07/21 02:49:24;;;;;;;7.60;4.85;;;;;;;24.54;51.50;100904.55;5141632;56;1136946;-67
2022/07/21 02:54:30;;;;;;;7.15;4.92;;;;;;;24.52;51.70;100903.92;5136853;56;1136951;-69
2022/07/21 02:59:35;;;;;;;9.43;4.90;;;;;;;24.45;51.84;100896.27;5140218;56;1136852;-68
2022/07/21 03:04:42;;;;;;;5.70;5.10;;;;;;;24.33;52.03;100897.87;5131806;56;1136959;-69
2022/07/21 03:09:47;;;;;;;6.58;4.90;;;;;;;24.24;52.55;100881.52;5134513;56;1136968;-68
2022/07/21 03:14:53;;;;;;;7.37;4.83;;;;;;;24.11;52.98;100880.89;5190737;56;1136907;-67
2022/07/21 03:19:59;;;;;;;7.47;5.10;;;;;;;23.95;53.33;100886.61;5164429;57;1137029;-68
2022/07/21 03:25:07;;;;;;;11.83;5.55;;;;;;;23.81;54.14;100899.70;5164389;57;1137089;-66
2022/07/21 03:30:15;;;;;;;6.33;4.92;;;;;;;23.74;54.41;100908.25;5117954;57;1139171;-67
2022/07/21 03:35:22;;;;;;;8.85;4.50;;;;;;;23.71;54.63;100909.47;5096459;57;1137046;-67
2022/07/21 03:40:32;;;;;;;8.68;4.87;;;;;;;23.64;54.77;100893.74;5164172;56;1137208;-68
2022/07/21 03:45:39;;;;;;;8.80;4.72;;;;;;;23.65;54.73;100891.88;5164204;57;1137006;-67
2022/07/21 03:50:44;;;;;;;6.17;4.85;;;;;;;23.65;55.12;100883.78;5164236;57;1137358;-67
2022/07/21 03:55:50;;;;;;;7.40;5.42;;;;;;;23.58;55.69;100885.57;5249904;56;1136914;-68
2022/07/21 04:00:56;;;;;;;11.65;4.92;;;;;;;23.60;55.16;100897.02;5251107;56;1134812;-68
2022/07/21 04:06:02;;;;;;;8.15;4.53;;;;;;;23.55;55.95;100887.30;5251225;56;1137197;-68
2022/07/21 04:11:08;;;;;;;8.50;4.70;;;;;;;23.48;56.23;100893.47;5251175;56;1134980;-67
2022/07/21 04:16:13;;;;;;;14.68;5.05;;;;;;;23.43;56.46;100908.05;5251900;56;1139230;-67
2022/07/21 04:21:19;;;;;;;9.00;4.50;;;;;;;23.43;56.58;100897.25;5251947;56;1141075;-68
2022/07/21 04:26:27;;;;;;;15.00;5.17;;;;;;;23.40;56.81;100899.50;5251776;56;1139057;-67
2022/07/21 04:31:32;;;;;;;7.50;4.97;;;;;;;23.38;57.24;100889.41;5217058;56;1141190;-68
2022/07/21 04:36:38;;;;;;;11.53;5.05;;;;;;;23.40;57.04;100897.63;5202545;56;1139080;-67
2022/07/21 04:41:44;;;;;;;6.40;4.90;;;;;;;23.41;57.45;100901.17;5164687;57;1141425;-67
2022/07/21 04:46:50;;;;;;;20.75;5.10;;;;;;;23.48;57.20;100893.98;5164771;57;1139039;-69
2022/07/21 04:51:55;;;;;;;9.63;4.60;;;;;;;23.53;57.27;100901.55;5182185;56;1141189;-68
2022/07/21 04:57:03;;;;;;;7.25;5.00;;;;;;;23.59;57.08;100909.69;5251624;56;1139176;-68
2022/07/21 05:02:09;;;;;;;5.90;4.05;;;;;;;23.69;57.04;100910.69;5246798;56;1139060;-66
2022/07/21 05:07:15;;;;;;;9.60;4.60;;;;;;;23.71;56.80;100907.28;5251745;56;1139114;-68
2022/07/21 05:12:21;;;;;;;7.50;4.40;;;;;;;23.82;56.71;100904.07;5244060;56;1139108;-67
2022/07/21 05:17:26;;;;;;;7.33;4.10;;;;;;;24.00;56.82;100908.95;5216906;56;1139198;-69
2022/07/21 05:22:33;;;;;;;12.43;4.85;;;;;;;24.14;56.69;100915.61;5215913;56;1139128;-67
2022/07/21 05:27:39;;;;;;;8.25;4.70;;;;;;;24.32;56.25;100914.30;5216689;56;1141303;-67
2022/07/21 05:32:45;;;;;;;13.85;5.42;;;;;;;24.47;56.12;100923.95;5199032;56;1139276;-67
2022/07/21 05:37:51;;;;;;;7.55;4.30;;;;;;;24.64;56.24;100923.62;5147942;56;1141137;-67
2022/07/21 05:42:56;;;;;;;7.53;4.70;;;;;;;24.87;55.71;100927.70;5137163;56;1139100;-68
2022/07/21 05:48:03;;;;;;;9.73;4.60;;;;;;;25.04;55.04;100930.91;5137164;56;1139069;-68
2022/07/21 05:53:09;;;;;;;4.60;4.20;;;;;;;25.15;55.23;100916.77;5120795;57;1139119;-67
2022/07/21 05:58:16;;;;;;;13.72;4.60;;;;;;;25.34;55.30;100917.86;5136753;57;1138959;-69
2022/07/21 06:03:23;;;;;;;8.05;4.22;;;;;;;25.51;55.05;100914.24;5136881;57;1141184;-69
2022/07/21 06:08:29;;;;;;;7.17;4.40;;;;;;;25.76;55.32;100909.06;5136720;57;1139090;-66
2022/07/21 06:13:36;;;;;;;8.20;3.80;;;;;;;25.99;54.55;100900.48;5154232;57;1139094;-68
2022/07/21 06:18:42;;;;;;;14.80;4.65;;;;;;;26.19;53.14;100893.99;5196413;56;1139369;-68
2022/07/21 06:23:48;;;;;;;5.42;4.03;;;;;;;26.36;52.02;100888.14;5240595;56;1141135;-68
2022/07/21 06:28:54;;;;;;;8.30;4.60;;;;;;;26.54;51.72;100898.63;5205357;56;1139222;-67
2022/07/21 06:34:00;;;;;;;7.12;4.05;;;;;;;26.71;50.85;100895.44;5163143;57;1139199;-69
2022/07/21 06:39:06;;;;;;;4.67;4.17;;;;;;;26.94;50.45;100894.39;5163056;57;1139188;-69
2022/07/21 06:44:11;;;;;;;6.75;3.77;;;;;;;27.17;50.41;100891.15;5163091;57;1139286;-67
2022/07/21 06:49:18;;;;;;;5.22;4.05;;;;;;;27.41;49.79;100887.62;5156563;57;1138997;-66
2022/07/21 06:54:23;;;;;;;4.47;3.98;;;;;;;27.68;48.61;100881.47;5120913;57;1139040;-69
2022/07/21 06:59:29;;;;;;;8.03;3.77;;;;;;;27.90;46.56;100891.43;5200069;56;1139011;-69
2022/07/21 07:04:36;;;;;;;9.65;3.70;;;;;;;28.14;47.67;100904.14;5199783;56;1139058;-70
2022/07/21 07:09:42;;;;;;;7.92;4.00;;;;;;;28.36;46.30;100899.14;5208818;56;1139095;-68
2022/07/21 07:14:48;;;;;;;4.90;3.83;;;;;;;28.59;46.42;100896.55;5226387;56;1139069;-68
2022/07/21 07:19:54;;;;;;;9.78;4.05;;;;;;;28.82;45.26;100890.44;5191828;56;1139062;-68
2022/07/21 07:24:59;;;;;;;5.03;3.87;;;;;;;29.09;44.87;100877.80;5164682;56;1139097;-66
2022/07/21 07:30:07;;;;;;;6.40;4.00;;;;;;;29.33;43.83;100878.19;5136510;57;1139109;-70
2022/07/21 07:35:13;;;;;;;5.20;3.87;;;;;;;29.51;43.30;100879.48;5187881;56;1137060;-69
2022/07/21 07:40:23;;;;;;;5.45;4.22;;;;;;;29.69;41.81;100877.19;5205650;56;1137218;-68
2022/07/21 07:45:29;;;;;;;5.90;3.77;;;;;;;29.87;41.19;100869.44;5206017;56;1136866;-68
2022/07/21 07:50:35;;;;;;;11.75;3.92;;;;;;;30.05;42.04;100878.36;5205833;56;1137080;-67
2022/07/21 07:55:41;;;;;;;8.28;4.20;;;;;;;30.31;42.36;100888.46;5038572;58;1139339;-69
2022/07/21 08:00:47;;;;;;;6.45;3.72;;;;;;;30.61;40.13;100883.67;4977891;58;1137192;-69
2022/07/21 08:05:55;;;;;;;8.70;3.95;;;;;;;30.61;40.13;100883.67;4977947;58;1136995;-68
2022/07/21 08:11:00;;;;;;;7.10;4.08;;;;;;;30.93;40.46;100886.77;4977872;58;1136933;-69
2022/07/21 08:16:06;;;;;;;5.70;4.17;;;;;;;31.03;40.06;100884.21;4982709;58;1137371;-69
2022/07/21 08:21:12;;;;;;;12.98;4.50;;;;;;;31.12;37.51;100881.96;4950755;58;1136995;-67
2022/07/21 08:26:18;;;;;;;7.13;3.93;;;;;;;31.22;39.01;100878.56;4998015;58;1139120;-69
2022/07/21 08:31:25;;;;;;;5.90;4.40;;;;;;;31.46;38.58;100880.93;5068201;58;1136877;-70
2022/07/21 08:36:31;;;;;;;13.18;4.28;;;;;;;31.71;36.89;100883.27;5069379;57;1137186;-68
2022/07/21 08:41:38;;;;;;;8.73;4.50;;;;;;;31.88;36.54;100871.48;5065314;58;1139343;-69
2022/07/21 08:46:46;;;;;;;11.68;4.62;;;;;;;32.00;36.04;100864.00;5066173;57;1136996;-70
2022/07/21 08:51:53;;;;;;;4.55;4.12;;;;;;;32.23;33.50;100862.98;5066408;57;1139070;-67
2022/07/21 08:57:05;;;;;;;8.20;3.70;;;;;;;32.43;34.42;100859.95;4981152;58;1134919;-68
2022/07/21 09:02:39;;;;;;;8.55;4.75;;;;;;;32.65;33.59;100858.58;4883684;59;1139025;-68
2022/07/21 09:07:57;;;;;;;4.95;4.25;;;;;;;32.78;34.24;100852.72;4913311;59;1139109;-68
2022/07/21 09:13:07;;;;;;;4.35;3.75;;;;;;;32.98;32.43;100847.17;4915563;58;1138927;-70
2022/07/21 09:18:16;;;;;;;8.33;3.90;;;;;;;33.14;32.72;100843.49;4946358;58;1139112;-69
2022/07/21 09:23:24;;;;;;;7.45;4.20;;;;;;;33.24;32.09;100833.98;5149453;57;1139031;-69
2022/07/21 09:28:31;;;;;;;4.97;4.53;;;;;;;33.43;32.64;100827.59;5115281;57;1139022;-70
2022/07/21 09:33:44;;;;;;;12.63;4.62;;;;;;;33.56;32.56;100824.39;5149856;57;1138994;-68
2022/07/21 09:39:03;;;;;;;6.70;3.67;;;;;;;33.79;33.51;100819.90;5149421;57;1141059;-70
2022/07/21 09:44:04;;;;;;;8.75;4.30;;;;;;;33.97;31.66;100804.91;5053171;58;1139256;-69
2022/07/21 09:49:11;;;;;;;11.35;4.40;;;;;;;33.95;32.40;100813.13;5149684;57;1138984;-68
2022/07/21 09:54:16;;;;;;;6.72;3.77;;;;;;;34.00;31.93;100815.91;5210125;56;1141076;-68
2022/07/21 09:59:23;;;;;;;5.78;4.25;;;;;;;33.98;31.32;100813.42;5115765;57;1139049;-69
2022/07/21 10:04:29;;;;;;;6.40;3.63;;;;;;;34.02;29.98;100808.23;5163486;57;1139014;-69
2022/07/21 10:09:35;;;;;;;4.92;3.47;;;;;;;34.11;30.66;100799.20;5163033;57;1138978;-65
2022/07/21 10:14:43;;;;;;;13.53;4.55;;;;;;;34.38;28.63;100801.80;5122021;57;1138947;-66
2022/07/21 10:19:56;;;;;;;10.32;4.25;;;;;;;34.46;29.17;100806.78;5080592;57;1141341;-65
2022/07/21 10:25:03;;;;;;;4.17;3.33;;;;;;;34.52;29.44;100798.02;5082198;56;1141060;-66
2022/07/21 10:30:10;;;;;;;8.33;3.87;;;;;;;34.66;29.30;100787.34;5083356;57;1138991;-67
2022/07/21 10:35:33;;;;;;;5.05;3.98;;;;;;;34.93;27.42;100798.11;5074571;57;1139049;-66
2022/07/21 10:40:40;;;;;;;10.00;3.25;;;;;;;34.92;28.85;100782.17;5153429;56;1139070;-65
2022/07/21 10:45:46;;;;;;;3.77;3.27;;;;;;;35.13;29.06;100769.27;5152832;56;1141223;-65
2022/07/21 10:50:52;;;;;;;6.35;4.22;;;;;;;35.21;28.24;100770.89;5133253;57;1137036;-65
2022/07/21 10:55:58;;;;;;;11.75;3.17;;;;;;;35.42;27.96;100773.66;5120611;57;1137008;-65
2022/07/21 11:01:16;;;;;;;9.73;3.22;;;;;;;35.49;25.80;100757.67;5153092;57;1139033;-65
2022/07/21 11:06:26;;;;;;;3.42;3.10;;;;;;;35.58;26.96;100760.15;5153483;57;1137072;-65
2022/07/21 11:11:36;;;;;;;9.00;3.83;;;;;;;35.82;26.56;100758.99;5153796;57;1137201;-65
2022/07/21 11:16:52;;;;;;;3.00;2.80;;;;;;;35.85;25.58;100755.13;5153808;57;1136971;-67
2022/07/21 11:22:00;;;;;;;13.98;3.80;;;;;;;35.88;25.64;100766.14;5135382;57;1136925;-67
2022/07/21 11:27:12;;;;;;;8.43;4.05;;;;;;;35.86;26.27;100760.91;5181846;56;1138978;-65
2022/07/21 11:32:19;;;;;;;10.98;3.70;;;;;;;35.94;25.92;100748.48;5150657;57;1137099;-68
2022/07/21 11:37:38;;;;;;;7.25;3.35;;;;;;;36.05;25.80;100745.97;5113770;57;1139036;-69
2022/07/21 11:42:47;;;;;;;8.53;3.75;;;;;;;36.19;24.83;100755.81;5151958;57;1138885;-69
2022/07/21 11:47:52;;;;;;;4.50;3.80;;;;;;;36.24;24.79;100745.61;5152251;57;1139020;-68
2022/07/21 11:52:59;;;;;;;8.33;3.80;;;;;;;36.21;25.38;100742.00;5185059;56;1139025;-69
2022/07/21 11:58:05;;;;;;;9.93;3.58;;;;;;;36.41;25.05;100742.48;5238161;56;1139074;-67
2022/07/21 12:03:11;;;;;;;9.38;3.37;;;;;;;36.56;24.51;100716.75;5237854;56;1139196;-67
2022/07/21 12:08:17;;;;;;;5.67;3.98;;;;;;;36.69;24.51;100719.41;5161094;56;1138384;-67
2022/07/21 12:13:23;;;;;;;7.40;4.12;;;;;;;36.81;24.06;100716.61;5152306;57;1139147;-68
2022/07/21 12:18:29;;;;;;;8.03;3.42;;;;;;;36.84;24.14;100725.66;5148156;57;1138966;-68
2022/07/21 12:23:35;;;;;;;6.58;3.33;;;;;;;37.03;23.02;100717.50;5131730;57;1139302;-70
2022/07/21 12:28:47;;;;;;;6.12;3.83;;;;;;;37.16;23.10;100708.54;5097963;57;1139063;-67
2022/07/21 12:33:57;;;;;;;7.60;3.35;;;;;;;37.08;23.18;100712.50;5125150;57;1139094;-69
2022/07/21 12:44:48;;;;;;;9.58;3.67;;;;;;;37.25;23.59;100700.50;5119937;57;1139060;-67
2022/07/21 12:50:08;;;;;;;6.97;3.17;;;;;;;37.19;23.66;100687.30;5133573;57;1139036;-69
2022/07/21 12:55:14;;;;;;;6.50;3.77;;;;;;;37.23;23.43;100684.23;5187235;56;1139277;-68
2022/07/21 13:00:20;;;;;;;8.70;3.25;;;;;;;37.19;22.55;100677.65;5214277;56;1139281;-67
2022/07/21 13:05:27;;;;;;;11.22;3.30;;;;;;;37.07;22.35;100681.34;5133553;57;1139101;-69
2022/07/21 13:10:33;;;;;;;13.30;3.80;;;;;;;37.16;22.34;100671.86;5153109;56;1141095;-70
2022/07/21 13:15:38;;;;;;;10.32;2.85;;;;;;;37.21;22.22;100667.70;5141830;57;1141202;-67
2022/07/21 13:20:44;;;;;;;10.13;3.90;;;;;;;37.40;20.89;100661.70;5143212;57;1141100;-68
2022/07/21 13:25:50;;;;;;;9.38;3.27;;;;;;;37.57;20.83;100650.19;5143820;57;1141417;-68
2022/07/21 13:30:56;;;;;;;7.53;3.77;;;;;;;37.41;20.89;100644.03;5140971;57;1138960;-69
2022/07/21 13:36:01;;;;;;;7.15;3.22;;;;;;;37.37;21.22;100636.07;5141161;57;1138519;-68
2022/07/21 13:41:08;;;;;;;10.18;3.52;;;;;;;37.44;21.02;100630.17;5141095;57;1139078;-67
2022/07/21 13:46:13;;;;;;;14.73;5.90;;;;;;;37.50;21.16;100629.02;5154397;57;1141475;-69
2022/07/21 13:51:21;;;;;;;10.05;4.65;;;;;;;37.65;20.55;100615.87;5161912;56;1141141;-68
2022/07/21 13:56:27;;;;;;;8.40;3.70;;;;;;;37.66;20.33;100631.88;5152957;57;1139052;-68
2022/07/21 14:01:34;;;;;;;5.92;3.37;;;;;;;37.74;20.47;100621.53;5163780;57;1136977;-69
2022/07/21 14:06:39;;;;;;;10.53;3.67;;;;;;;37.90;20.68;100615.23;5163854;57;1136950;-67
2022/07/21 14:11:45;;;;;;;14.87;4.10;;;;;;;37.89;20.56;100617.77;5163738;57;1139104;-69
2022/07/21 14:16:53;;;;;;;5.95;4.00;;;;;;;37.81;20.32;100613.72;5163374;57;1139065;-68
2022/07/21 14:21:58;;;;;;;5.97;3.40;;;;;;;37.82;19.03;100607.08;5156957;56;1137011;-67
2022/07/21 14:27:05;;;;;;;3.58;3.27;;;;;;;37.82;19.03;100607.08;5151282;57;1136968;-66
2022/07/21 14:32:10;;;;;;;5.83;3.58;;;;;;;37.98;19.56;100620.09;5151182;57;1136917;-68
2022/07/21 14:37:16;;;;;;;14.87;3.98;;;;;;;38.03;20.42;100610.92;5150150;57;1136999;-67
2022/07/21 14:42:25;;;;;;;7.05;3.75;;;;;;;38.07;20.38;100601.72;5136602;57;1139173;-67
2022/07/21 14:47:31;;;;;;;8.40;3.87;;;;;;;38.20;19.60;100608.45;5137317;57;1136975;-68
2022/07/21 14:52:37;;;;;;;8.88;4.20;;;;;;;38.25;18.67;100609.20;5132410;57;1137050;-71
2022/07/21 14:57:43;;;;;;;12.28;4.08;;;;;;;38.18;18.72;100592.20;5126860;57;1136957;-70
2022/07/21 15:02:49;;;;;;;12.40;7.42;;;;;;;38.18;18.45;100595.53;5137851;57;1139305;-69
2022/07/21 15:07:55;;;;;;;16.12;4.42;;;;;;;38.19;18.34;100589.70;5149774;57;1139079;-69
2022/07/21 15:13:01;;;;;;;17.73;4.95;;;;;;;38.12;17.90;100584.28;5147704;57;1139224;-68
2022/07/21 15:18:07;;;;;;;22.27;5.50;;;;;;;38.09;18.81;100582.94;5138840;57;1139117;-68
2022/07/21 15:23:14;;;;;;;15.20;5.67;;;;;;;38.08;18.30;100574.92;5142363;57;1139199;-67
2022/07/21 15:28:20;;;;;;;19.57;8.08;;;;;;;37.94;18.61;100563.26;5089875;56;1137109;-67
2022/07/21 15:33:25;;;;;;;17.15;4.47;;;;;;;37.93;18.70;100573.22;5099537;58;21235;-70
2022/07/21 15:38:31;;;;;;;8.85;3.95;;;;;;;37.89;19.18;100551.48;5079042;57;1136983;-67
2022/07/21 15:43:37;;;;;;;12.83;3.93;;;;;;;37.99;18.83;100555.46;5060581;58;1139042;-67
2022/07/21 15:48:43;;;;;;;12.63;4.20;;;;;;;37.99;19.14;100552.14;5072907;56;1140970;-68
2022/07/21 15:53:48;;;;;;;8.33;3.70;;;;;;;37.99;18.99;100552.70;5073003;57;1141319;-68
2022/07/21 16:04:19;;;;;;;4.83;3.55;;;;;;;37.90;19.27;100542.88;5105501;57;1139042;-68
2022/07/21 16:09:25;;;;;;;9.93;4.40;;;;;;;37.87;19.08;100537.98;5094200;57;1138993;-70
2022/07/21 16:14:30;;;;;;;10.63;4.22;;;;;;;37.81;19.40;100525.92;5101979;57;1139097;-70
2022/07/21 16:19:37;;;;;;;6.40;3.42;;;;;;;37.85;19.53;100519.51;5047298;57;1141310;-70
2022/07/21 16:24:43;;;;;;;11.55;4.08;;;;;;;37.69;19.24;100522.25;5067125;57;1139116;-68
2022/07/21 16:29:49;;;;;;;8.18;4.50;;;;;;;37.68;18.92;100517.02;5033070;58;1141172;-67
2022/07/21 16:34:54;;;;;;;12.82;4.10;;;;;;;37.66;18.98;100518.70;5075373;57;1139569;-69
2022/07/21 16:40:00;;;;;;;7.53;3.55;;;;;;;37.52;19.25;100516.39;5050402;58;1141096;-69
2022/07/21 16:45:07;;;;;;;11.68;4.15;;;;;;;37.54;19.62;100510.84;5039544;58;1138977;-68
2022/07/21 16:50:14;;;;;;;8.45;5.08;;;;;;;37.54;19.20;100510.84;5023314;58;1141346;-69
2022/07/21 16:55:20;;;;;;;12.73;4.78;;;;;;;37.48;19.55;100506.50;5044793;58;1139060;-68
2022/07/21 17:00:26;;;;;;;12.20;4.15;;;;;;;37.40;20.20;100507.19;5052212;58;1141031;-68
2022/07/21 17:05:32;;;;;;;6.22;3.85;;;;;;;37.22;19.59;100503.84;4993692;58;1141138;-69
2022/07/21 17:10:37;;;;;;;14.53;3.90;;;;;;;37.01;19.90;100501.05;5032702;58;1139046;-68
2022/07/21 17:15:43;;;;;;;7.80;4.50;;;;;;;36.85;19.92;100502.61;5030865;58;1141383;-68
2022/07/21 17:20:49;;;;;;;11.18;3.90;;;;;;;36.75;20.27;100497.23;5030061;58;1138878;-69
2022/07/21 17:25:55;;;;;;;13.68;4.95;;;;;;;36.66;20.47;100500.91;5110755;57;1141134;-67
2022/07/21 17:31:01;;;;;;;11.60;5.62;;;;;;;36.56;20.82;100504.02;5125398;57;1140946;-69
2022/07/21 17:36:07;;;;;;;16.05;4.97;;;;;;;36.48;20.97;100506.05;5163494;57;1141393;-69
2022/07/21 17:41:13;;;;;;;10.08;5.83;;;;;;;36.34;22.07;100530.43;5124114;57;1141110;-67
2022/07/21 17:46:19;;;;;;;10.03;6.40;;;;;;;35.33;27.33;100529.97;5058556;58;1141146;-67
2022/07/21 17:51:25;;;;;;;12.70;6.05;;;;;;;34.54;28.80;100527.97;5163501;57;1141081;-67
2022/07/21 17:56:30;;;;;;;9.73;5.83;;;;;;;33.99;30.50;100525.52;5162623;57;1141131;-70
2022/07/21 18:01:39;;;;;;;15.53;7.03;;;;;;;33.55;31.63;100530.62;5083896;57;1139133;-67
2022/07/21 18:06:46;;;;;;;19.92;6.95;;;;;;;33.17;32.29;100542.25;5163574;56;1141181;-67
2022/07/21 18:11:51;;;;;;;12.53;7.22;;;;;;;32.95;32.94;100549.01;5163294;56;1141073;-67
2022/07/21 18:16:57;;;;;;;12.35;7.10;;;;;;;32.76;33.55;100551.36;5162978;56;1141120;-69
2022/07/21 18:22:03;;;;;;;11.95;7.50;;;;;;;32.47;34.19;100556.34;5106611;57;1141331;-67
2022/07/21 18:27:09;;;;;;;19.35;7.55;;;;;;;32.30;34.56;100559.75;5045840;57;1141184;-70
2022/07/21 18:32:15;;;;;;;18.70;8.18;;;;;;;32.23;35.02;100557.80;5067268;57;1141176;-68
2022/07/21 18:37:20;;;;;;;16.05;6.80;;;;;;;32.17;35.86;100566.47;5086541;57;1141411;-68
2022/07/21 18:42:27;;;;;;;17.92;7.55;;;;;;;32.12;35.85;100568.60;5087762;57;1139068;-68
2022/07/21 18:47:33;;;;;;;13.20;8.08;;;;;;;32.21;36.68;100572.28;4994333;58;1139072;-67
2022/07/21 18:52:40;;;;;;;21.62;13.75;;;;;;;32.00;36.78;100583.53;5048572;58;1139133;-67
2022/07/21 18:57:46;;;;;;;218.82;196.78;;;;;;;31.74;37.01;100590.66;5075695;58;1141153;-68
2022/07/21 19:02:51;;;;;;;20.88;10.58;;;;;;;31.64;37.34;100600.06;5064560;58;1145347;-68
2022/07/21 19:07:58;;;;;;;15.10;7.78;;;;;;;31.52;37.55;100613.05;5070684;58;1141132;-69
2022/07/21 19:13:04;;;;;;;12.80;8.33;;;;;;;31.43;37.84;100616.25;5076125;58;1139179;-69
2022/07/21 19:18:09;;;;;;;18.52;10.28;;;;;;;31.39;38.16;100616.45;5086565;57;1139094;-66
2022/07/21 19:23:15;;;;;;;16.95;8.80;;;;;;;31.37;38.77;100615.88;5143653;57;1141104;-69
2022/07/21 19:28:21;;;;;;;19.37;8.58;;;;;;;31.29;38.38;100624.53;5243050;56;1139114;-67
2022/07/21 19:33:27;;;;;;;11.20;7.85;;;;;;;31.33;38.84;100630.30;5176263;56;1139303;-69
2022/07/21 19:38:33;;;;;;;18.50;7.75;;;;;;;31.19;38.88;100641.31;5163418;56;1139014;-67
2022/07/21 19:43:39;;;;;;;11.55;7.03;;;;;;;30.97;39.64;100646.17;5190061;56;1139282;-69
2022/07/21 19:48:45;;;;;;;12.50;7.35;;;;;;;30.67;40.00;100657.45;5188993;56;1139094;-67
2022/07/21 19:53:51;;;;;;;21.45;8.05;;;;;;;30.31;40.60;100658.69;5106269;56;1139091;-68
2022/07/21 19:58:58;;;;;;;12.68;6.90;;;;;;;30.04;41.25;100662.56;5130611;57;1139274;-67
2022/07/21 20:04:04;;;;;;;14.45;6.30;;;;;;;29.77;41.82;100675.62;5185412;56;1139061;-69
2022/07/21 20:09:10;;;;;;;14.85;6.67;;;;;;;29.52;42.30;100679.98;5213018;56;1139161;-66
2022/07/21 20:14:15;;;;;;;12.60;5.78;;;;;;;29.28;42.58;100684.08;5124028;56;1137123;-67
2022/07/21 20:19:21;;;;;;;7.58;6.17;;;;;;;29.07;42.73;100686.55;5122123;56;1137066;-67
2022/07/21 20:24:28;;;;;;;15.23;6.20;;;;;;;29.02;42.78;100674.49;5163496;56;1139052;-69
2022/07/21 20:29:34;;;;;;;11.63;5.30;;;;;;;29.01;42.64;100690.53;5163119;56;1141130;-68
2022/07/21 20:34:41;;;;;;;5.40;4.90;;;;;;;28.88;43.07;100689.91;5086497;57;1141095;-67
2022/07/21 20:39:47;;;;;;;7.03;5.27;;;;;;;28.68;43.39;100690.22;5079623;57;1138318;-70
2022/07/21 20:44:53;;;;;;;7.97;5.80;;;;;;;28.56;43.92;100696.17;5079262;57;1139019;-66
2022/07/21 20:49:59;;;;;;;7.22;5.72;;;;;;;28.45;44.12;100698.30;5079324;57;1139095;-68
2022/07/21 20:55:06;;;;;;;8.00;5.20;;;;;;;28.34;44.48;100707.56;5149400;57;1139298;-68
2022/07/21 21:00:12;;;;;;;9.85;5.75;;;;;;;28.25;44.95;100723.92;5173151;56;1139254;-69
2022/07/21 21:05:18;;;;;;;9.17;5.60;;;;;;;28.09;45.47;100719.08;5229193;56;1139044;-68
2022/07/21 21:10:23;;;;;;;6.62;4.90;;;;;;;28.01;45.83;100723.45;5132087;57;1139078;-67
2022/07/21 21:15:30;;;;;;;8.35;5.47;;;;;;;28.08;46.01;100732.37;5084569;57;1139096;-68
2022/07/21 21:20:36;;;;;;;6.70;4.58;;;;;;;28.02;46.40;100741.44;5079446;58;1139040;-68
2022/07/21 21:25:43;;;;;;;7.97;5.05;;;;;;;27.90;46.44;100738.66;5128149;57;1139061;-68
2022/07/21 21:30:49;;;;;;;12.13;5.33;;;;;;;27.84;46.54;100740.08;5123960;57;1139039;-68
2022/07/21 21:35:55;;;;;;;8.68;4.78;;;;;;;27.73;47.18;100743.55;5117567;57;1141096;-67
2022/07/21 21:41:01;;;;;;;9.80;5.35;;;;;;;27.47;47.85;100748.19;5079483;57;1139046;-66
2022/07/21 21:46:10;;;;;;;9.00;5.42;;;;;;;27.32;47.93;100742.28;5079718;57;1139040;-68
2022/07/21 21:51:15;;;;;;;5.37;4.65;;;;;;;27.14;48.27;100732.20;5085317;57;1139058;-68
2022/07/21 21:56:21;;;;;;;5.92;4.65;;;;;;;27.07;48.69;100730.58;5162903;57;1139044;-67
2022/07/21 22:01:27;;;;;;;5.85;4.45;;;;;;;27.15;48.63;100730.31;5170287;56;1139312;-67
2022/07/21 22:06:34;;;;;;;5.85;4.60;;;;;;;27.36;48.62;100733.13;5227336;56;1139048;-67
2022/07/21 22:11:39;;;;;;;4.83;4.33;;;;;;;27.42;48.00;100733.08;5226979;56;1139024;-69
2022/07/21 22:16:45;;;;;;;4.00;3.45;;;;;;;27.38;47.93;100734.58;5227279;56;1139052;-67
2022/07/21 22:21:50;;;;;;;5.67;4.20;;;;;;;27.25;48.29;100740.14;5226426;56;1138990;-67
2022/07/21 22:26:56;;;;;;;6.87;4.08;;;;;;;27.25;48.39;100748.28;5094596;56;1139055;-68
2022/07/21 22:32:02;;;;;;;5.17;4.33;;;;;;;27.32;48.48;100761.30;5065660;58;1138939;-70
2022/07/21 22:37:10;;;;;;;9.15;4.03;;;;;;;27.23;48.47;100763.44;5051038;58;1139082;-67
2022/07/21 22:42:16;;;;;;;11.83;5.05;;;;;;;27.18;48.67;100755.67;5052575;58;1139056;-69
2022/07/21 22:47:21;;;;;;;8.15;4.15;;;;;;;27.03;48.82;100761.96;4967610;59;1141203;-69
2022/07/21 22:52:26;;;;;;;8.25;4.40;;;;;;;27.12;49.35;100755.19;4992621;58;1139106;-69
2022/07/21 22:57:32;;;;;;;8.15;3.98;;;;;;;27.08;49.11;100752.08;5048554;58;1139113;-67
2022/07/21 23:02:38;;;;;;;4.15;3.72;;;;;;;26.96;49.31;100758.76;5116021;57;1139135;-67
2022/07/21 23:07:44;;;;;;;10.23;4.12;;;;;;;26.82;49.73;100746.30;5121786;57;1139031;-67
2022/07/21 23:12:50;;;;;;;11.43;3.83;;;;;;;26.93;50.17;100736.12;5059235;58;1141197;-69
2022/07/21 23:17:55;;;;;;;8.40;4.30;;;;;;;27.00;49.88;100740.68;5067024;58;1141029;-70